createdAt,value
2019-05-01T00:01:01.540Z,23.40
2019-05-01T00:03:47.878Z,23.60
2019-05-01T00:06:17.005Z,20.50
2019-05-01T00:08:44.351Z,22.40
2019-05-01T00:11:11.748Z,25.37
2019-05-01T00:13:38.903Z,24.30
2019-05-01T00:16:06.521Z,25.67
2019-05-01T00:18:34.294Z,26.13
2019-05-01T00:21:01.496Z,25.40
2019-05-01T00:23:28.575Z,25.13
2019-05-01T00:25:56.114Z,25.63
2019-05-01T00:28:23.366Z,24.90
2019-05-01T00:30:50.605Z,26.00
2019-05-01T00:33:18.257Z,26.80
2019-05-01T00:36:05.048Z,26.87
2019-05-01T00:38:32.859Z,25.20
2019-05-01T00:41:00.091Z,21.37
2019-05-01T00:43:27.129Z,24.77
2019-05-01T00:45:54.827Z,24.13
2019-05-01T00:48:22.203Z,23.20
2019-05-01T00:50:49.311Z,22.30
2019-05-01T00:53:17.033Z,21.43
2019-05-01T00:58:56.568Z,22.20
2019-05-01T01:02:02.177Z,24.67
2019-05-01T01:04:42.222Z,24.70
2019-05-01T01:10:07.777Z,27.77
2019-05-01T01:12:34.760Z,26.13
2019-05-01T01:15:02.729Z,26.47
2019-05-01T01:17:30.183Z,24.57
2019-05-01T01:19:57.321Z,23.90
2019-05-01T01:22:24.874Z,25.43
2019-05-01T01:24:52.172Z,28.53
2019-05-01T01:27:19.311Z,23.77
2019-05-01T01:29:46.951Z,24.93
2019-05-01T01:32:14.147Z,27.73
2019-05-01T01:34:41.043Z,26.80
2019-05-01T01:37:08.673Z,25.63
2019-05-01T01:39:35.848Z,25.03
2019-05-01T01:42:03.145Z,24.57
2019-05-01T01:45:04.869Z,25.57
2019-05-01T01:47:32.325Z,25.63
2019-05-01T01:49:59.335Z,25.20
2019-05-01T01:52:26.732Z,26.70
2019-05-01T01:54:54.120Z,27.03
2019-05-01T01:57:21.350Z,24.20
2019-05-01T01:59:48.807Z,23.43
2019-05-01T02:02:38.124Z,25.57
2019-05-01T02:05:20.819Z,27.50
2019-05-01T02:07:48.379Z,26.20
2019-05-01T02:10:15.719Z,26.73
2019-05-01T02:12:43.228Z,26.20
2019-05-01T02:15:10.792Z,27.10
2019-05-01T02:17:37.856Z,26.27
2019-05-01T02:20:06.409Z,27.57
2019-05-01T02:22:33.473Z,29.27
2019-05-01T02:25:01.247Z,26.80
2019-05-01T02:27:41.029Z,30.00
2019-05-01T02:30:10.332Z,28.33
2019-05-01T02:32:37.755Z,27.33
2019-05-01T02:35:05.133Z,29.07
2019-05-01T02:37:32.519Z,30.43
2019-05-01T02:39:59.848Z,26.57
2019-05-01T02:42:27.870Z,29.20
2019-05-01T02:44:55.528Z,28.53
2019-05-01T02:47:25.812Z,24.67
2019-05-01T02:49:58.835Z,21.77
2019-05-01T02:52:28.788Z,22.40
2019-05-01T02:55:09.590Z,23.30
2019-05-01T02:57:37.140Z,26.03
2019-05-01T03:00:04.940Z,27.03
2019-05-01T03:02:32.192Z,24.93
2019-05-01T03:04:59.586Z,28.67
2019-05-01T03:07:32.382Z,27.83
2019-05-01T03:10:00.693Z,25.37
2019-05-01T03:12:27.845Z,29.03
2019-05-01T03:14:55.349Z,26.30
2019-05-01T03:17:54.330Z,26.87
2019-05-01T03:20:41.129Z,29.47
2019-05-01T03:23:15.556Z,27.53
2019-05-01T03:25:42.856Z,28.43
2019-05-01T03:28:10.292Z,27.50
2019-05-01T03:30:38.093Z,31.70
2019-05-01T03:33:05.519Z,29.57
2019-05-01T03:35:32.783Z,29.97
2019-05-01T03:38:00.437Z,31.73
2019-05-01T03:40:27.573Z,30.07
2019-05-01T03:43:14.567Z,28.10
2019-05-01T03:45:41.952Z,30.37
2019-05-01T03:48:09.217Z,27.97
2019-05-01T03:50:55.847Z,31.57
2019-05-01T03:53:23.072Z,29.37
2019-05-01T03:56:09.913Z,30.00
2019-05-01T03:58:37.423Z,27.87
2019-05-01T04:01:20.941Z,28.80
2019-05-01T04:04:06.843Z,30.03
2019-05-01T04:06:34.031Z,28.43
2019-05-01T04:09:01.300Z,29.23
2019-05-01T04:11:31.434Z,31.97
2019-05-01T04:13:58.518Z,30.97
2019-05-01T04:16:26.062Z,27.40
2019-05-01T04:18:53.324Z,28.40
2019-05-01T04:21:22.558Z,28.47
2019-05-01T04:23:50.090Z,27.50
2019-05-01T04:26:17.824Z,29.13
2019-05-01T04:28:54.323Z,27.90
2019-05-01T04:31:48.234Z,28.90
2019-05-01T04:34:36.386Z,26.17
2019-05-01T04:37:05.362Z,30.17
2019-05-01T04:39:32.618Z,24.17
2019-05-01T04:42:00.121Z,26.13
2019-05-01T04:44:27.487Z,26.33
2019-05-01T04:46:54.536Z,26.40
2019-05-01T04:49:21.708Z,28.13
2019-05-01T04:51:48.869Z,27.57
2019-05-01T04:54:16.768Z,28.60
2019-05-01T04:57:03.274Z,30.30
2019-05-01T04:59:50.125Z,28.57
2019-05-01T05:02:25.140Z,28.67
2019-05-01T05:04:52.951Z,26.13
2019-05-01T05:07:20.563Z,27.10
2019-05-01T05:09:48.435Z,28.87
2019-05-01T05:12:22.175Z,24.43
2019-05-01T05:14:54.091Z,23.97
2019-05-01T05:17:22.787Z,26.77
2019-05-01T05:19:50.202Z,24.80
2019-05-01T05:22:17.549Z,23.57
2019-05-01T05:24:45.153Z,23.87
2019-05-01T05:27:12.699Z,25.87
2019-05-01T05:29:39.974Z,21.47
2019-05-01T05:32:07.426Z,24.23
2019-05-01T05:34:54.593Z,20.93
2019-05-01T05:37:27.156Z,22.07
2019-05-01T05:39:54.474Z,23.03
2019-05-01T05:42:22.107Z,22.20
2019-05-01T05:44:49.459Z,23.77
2019-05-01T05:47:16.883Z,26.87
2019-05-01T05:49:44.939Z,22.47
2019-05-01T05:52:20.578Z,23.13
2019-05-01T05:55:20.591Z,22.70
2019-05-01T05:58:20.396Z,21.93
2019-05-01T06:01:16.220Z,26.87
2019-05-01T06:04:07.090Z,22.60
2019-05-01T06:06:54.223Z,22.13
2019-05-01T06:09:23.902Z,23.20
2019-05-01T06:12:20.478Z,25.93
2019-05-01T06:15:02.360Z,23.73
2019-05-01T06:17:50.502Z,25.30
2019-05-01T06:20:29.353Z,21.30
2019-05-01T06:23:25.984Z,16.93
2019-05-01T06:25:59.906Z,23.77
2019-05-01T06:28:24.942Z,19.67
2019-05-01T06:31:05.493Z,24.07
2019-05-01T06:33:43.805Z,26.17
2019-05-01T06:36:02.723Z,25.93
2019-05-01T06:38:31.572Z,29.17
2019-05-01T06:41:00.797Z,27.30
2019-05-01T06:43:35.996Z,31.67
2019-05-01T06:46:27.189Z,29.30
2019-05-01T06:48:55.975Z,29.80
2019-05-01T06:51:41.124Z,29.27
2019-05-01T06:54:11.380Z,33.53
2019-05-01T06:56:39.303Z,24.57
2019-05-01T06:59:06.700Z,25.60
2019-05-01T07:01:34.418Z,18.33
2019-05-01T07:04:03.879Z,18.43
2019-05-01T07:06:32.710Z,18.63
2019-05-01T07:09:00.043Z,17.97
2019-05-01T07:11:27.449Z,17.20
2019-05-01T07:13:55.844Z,18.27
2019-05-01T07:16:23.557Z,18.50
2019-05-01T07:18:51.769Z,18.47
2019-05-01T07:21:22.881Z,15.97
2019-05-01T07:23:52.233Z,15.57
2019-05-01T07:26:17.381Z,14.90
2019-05-01T07:28:46.617Z,13.70
2019-05-01T07:31:14.846Z,16.03
2019-05-01T07:33:42.167Z,15.60
2019-05-01T07:36:15.220Z,15.40
2019-05-01T07:38:40.534Z,12.33
2019-05-01T07:41:08.295Z,14.30
2019-05-01T07:43:59.815Z,11.40
2019-05-01T07:46:48.814Z,11.67
2019-05-01T07:49:17.664Z,13.63
2019-05-01T07:51:51.027Z,11.40
2019-05-01T07:54:18.937Z,12.00
2019-05-01T07:56:46.311Z,14.80
2019-05-01T07:59:13.928Z,13.87
2019-05-01T08:01:54.425Z,14.30
2019-05-01T08:04:35.351Z,12.27
2019-05-01T08:06:51.999Z,11.93
2019-05-01T08:09:18.212Z,12.03
2019-05-01T08:11:45.730Z,14.17
2019-05-01T08:14:16.513Z,13.00
2019-05-01T08:16:43.615Z,12.93
2019-05-01T08:19:39.295Z,15.30
2019-05-01T08:22:11.645Z,12.00
2019-05-01T08:24:39.205Z,12.20
2019-05-01T08:27:09.359Z,15.43
2019-05-01T08:29:53.732Z,14.10
2019-05-01T08:32:43.875Z,13.97
2019-05-01T08:35:13.681Z,10.63
2019-05-01T08:37:41.068Z,15.33
2019-05-01T08:40:08.378Z,13.77
2019-05-01T08:42:37.854Z,13.70
2019-05-01T08:45:23.804Z,11.53
2019-05-01T08:48:36.027Z,13.20
2019-05-01T08:51:00.818Z,12.50
2019-05-01T08:53:28.277Z,11.10
2019-05-01T08:55:55.595Z,11.37
2019-05-01T08:58:23.390Z,13.67
2019-05-01T09:00:50.990Z,11.07
2019-05-01T09:03:37.778Z,10.90
2019-05-01T09:06:05.453Z,12.80
2019-05-01T09:08:33.361Z,10.33
2019-05-01T09:11:02.284Z,11.43
2019-05-01T09:13:29.838Z,14.33
2019-05-01T09:15:57.150Z,9.97
2019-05-01T09:18:24.490Z,10.43
2019-05-01T09:20:54.139Z,12.37
2019-05-01T09:23:21.512Z,11.33
2019-05-01T09:26:15.920Z,12.73
2019-05-01T09:28:45.346Z,12.07
2019-05-01T09:31:14.809Z,9.63
2019-05-01T09:33:42.190Z,9.33
2019-05-01T09:36:10.121Z,10.83
2019-05-01T09:38:37.764Z,10.93
2019-05-01T09:41:04.879Z,10.23
2019-05-01T09:43:35.623Z,13.00
2019-05-01T09:46:21.267Z,11.23
2019-05-01T09:48:48.543Z,9.40
2019-05-01T09:51:33.934Z,12.20
2019-05-01T09:54:12.878Z,8.83
2019-05-01T09:56:40.389Z,9.27
2019-05-01T09:59:08.135Z,11.20
2019-05-01T10:01:35.425Z,8.83
2019-05-01T10:04:05.533Z,10.00
2019-05-01T10:06:32.010Z,10.00
2019-05-01T10:08:59.440Z,8.97
2019-05-01T10:11:26.816Z,8.53
2019-05-01T10:13:58.019Z,8.60
2019-05-01T10:16:22.781Z,10.13
2019-05-01T10:18:50.275Z,10.33
2019-05-01T10:21:17.641Z,11.83
2019-05-01T10:23:47.165Z,9.30
2019-05-01T10:26:19.127Z,9.00
2019-05-01T10:29:03.029Z,11.50
2019-05-01T10:31:52.772Z,7.83
2019-05-01T10:34:30.957Z,8.77
2019-05-01T10:36:58.348Z,9.37
2019-05-01T10:39:26.037Z,8.90
2019-05-01T10:41:53.035Z,10.40
2019-05-01T10:44:39.921Z,9.57
2019-05-01T10:47:07.693Z,9.87
2019-05-01T10:49:35.091Z,9.00
2019-05-01T10:52:13.590Z,8.47
2019-05-01T10:54:31.740Z,7.63
2019-05-01T10:57:03.494Z,7.73
2019-05-01T10:59:28.885Z,7.10
2019-05-01T11:01:58.680Z,8.63
2019-05-01T11:04:26.473Z,8.47
2019-05-01T11:06:53.928Z,8.20
2019-05-01T11:09:21.385Z,8.50
2019-05-01T11:11:49.044Z,9.30
2019-05-01T11:14:16.507Z,7.70
2019-05-01T11:16:43.876Z,6.30
2019-05-01T11:19:11.398Z,7.77
2019-05-01T11:21:39.031Z,7.30
2019-05-01T11:24:06.404Z,7.63
2019-05-01T11:26:33.869Z,9.47
2019-05-01T11:29:01.361Z,7.80
2019-05-01T11:31:36.697Z,7.30
2019-05-01T11:34:29.420Z,6.77
2019-05-01T11:37:11.311Z,10.27
2019-05-01T11:39:42.350Z,7.07
2019-05-01T11:42:29.004Z,7.90
2019-05-01T11:44:56.664Z,7.47
2019-05-01T11:47:24.495Z,8.13
2019-05-01T11:49:58.291Z,7.73
2019-05-01T11:52:25.581Z,8.87
2019-05-01T11:54:52.979Z,6.73
2019-05-01T11:57:20.860Z,7.33
2019-05-01T11:59:48.183Z,7.57
2019-05-01T12:02:15.459Z,7.83
2019-05-01T12:04:43.170Z,6.27
2019-05-01T12:07:10.449Z,7.60
2019-05-01T12:09:57.637Z,7.37
2019-05-01T12:12:31.632Z,8.70
2019-05-01T12:14:58.964Z,7.87
2019-05-01T12:17:57.959Z,7.33
2019-05-01T12:20:25.492Z,7.67
2019-05-01T12:22:52.929Z,9.00
2019-05-01T12:25:20.186Z,9.17
2019-05-01T12:27:47.881Z,8.10
2019-05-01T12:30:16.665Z,6.87
2019-05-01T12:32:43.964Z,7.17
2019-05-01T12:35:11.334Z,6.00
2019-05-01T12:37:40.808Z,6.00
2019-05-01T12:40:09.396Z,10.47
2019-05-01T12:42:36.844Z,7.53
2019-05-01T12:45:05.932Z,5.83
2019-05-01T12:47:51.360Z,5.47
2019-05-01T12:50:19.405Z,6.27
2019-05-01T12:52:58.615Z,6.40
2019-05-01T12:55:35.949Z,6.27
2019-05-01T12:58:03.376Z,6.20
2019-05-01T13:00:40.674Z,6.87
2019-05-01T13:03:08.036Z,7.83
2019-05-01T13:05:55.147Z,6.77
2019-05-01T13:08:35.663Z,10.20
2019-05-01T13:13:48.008Z,7.00
2019-05-01T13:16:15.295Z,5.17
2019-05-01T13:18:42.711Z,7.47
2019-05-01T13:21:10.412Z,4.97
2019-05-01T13:23:38.084Z,7.63
2019-05-01T13:26:12.619Z,6.23
2019-05-01T13:28:59.324Z,5.67
2019-05-01T13:32:04.421Z,5.37
2019-05-01T13:34:31.752Z,5.40
2019-05-01T13:37:03.244Z,6.37
2019-05-01T13:39:47.572Z,5.00
2019-05-01T13:42:15.130Z,6.47
2019-05-01T13:44:42.465Z,7.37
2019-05-01T13:47:09.810Z,6.80
2019-05-01T13:49:37.645Z,5.53
2019-05-01T13:52:05.294Z,5.40
2019-05-01T13:54:32.655Z,7.50
2019-05-01T13:56:59.811Z,7.57
2019-05-01T13:59:27.412Z,5.83
2019-05-01T14:01:55.101Z,7.63
2019-05-01T14:04:23.255Z,5.43
2019-05-01T14:07:16.622Z,5.63
2019-05-01T14:09:40.248Z,5.63
2019-05-01T14:12:07.692Z,6.60
2019-05-01T14:14:34.942Z,6.27
2019-05-01T14:17:01.891Z,4.43
2019-05-01T14:19:29.190Z,6.00
2019-05-01T14:22:08.815Z,5.13
2019-05-01T14:24:38.874Z,4.23
2019-05-01T14:27:07.845Z,3.50
2019-05-01T14:29:35.561Z,3.77
2019-05-01T14:32:02.806Z,4.40
2019-05-01T14:34:30.245Z,3.53
2019-05-01T14:37:29.121Z,4.20
2019-05-01T14:39:47.024Z,7.60
2019-05-01T14:42:14.360Z,3.83
2019-05-01T14:44:41.738Z,3.40
2019-05-01T14:47:09.450Z,2.90
2019-05-01T14:49:36.869Z,3.10
2019-05-01T14:52:23.661Z,3.20
2019-05-01T14:54:51.414Z,3.00
2019-05-01T14:57:18.948Z,3.37
2019-05-01T14:59:46.093Z,4.50
2019-05-01T15:02:13.282Z,3.83
2019-05-01T15:04:40.734Z,4.00
2019-05-01T15:07:14.020Z,6.60
2019-05-01T15:10:00.879Z,4.87
2019-05-01T15:12:30.113Z,4.17
2019-05-01T15:15:12.468Z,4.00
2019-05-01T15:17:50.321Z,3.97
2019-05-01T15:20:17.871Z,4.00
2019-05-01T15:22:45.145Z,4.83
2019-05-01T15:25:12.479Z,5.10
2019-05-01T15:27:39.869Z,4.63
2019-05-01T15:30:07.549Z,6.10
2019-05-01T15:32:35.053Z,4.70
2019-05-01T15:35:02.436Z,3.90
2019-05-01T15:37:30.105Z,4.93
2019-05-01T15:40:01.626Z,6.00
2019-05-01T15:42:36.413Z,3.50
2019-05-01T15:45:04.066Z,3.47
2019-05-01T15:47:31.533Z,4.70
2019-05-01T15:49:58.994Z,3.50
2019-05-01T15:52:26.307Z,5.27
2019-05-01T15:54:53.543Z,3.60
2019-05-01T15:57:21.395Z,4.87
2019-05-01T15:59:49.217Z,5.73
2019-05-01T16:02:16.966Z,6.27
2019-05-01T16:04:47.262Z,4.67
2019-05-01T16:07:14.652Z,3.37
2019-05-01T16:09:42.345Z,3.40
2019-05-01T16:12:34.041Z,4.20
2019-05-01T16:15:01.947Z,3.33
2019-05-01T16:17:29.242Z,5.17
2019-05-01T16:19:56.323Z,4.07
2019-05-01T16:22:24.107Z,4.37
2019-05-01T16:24:51.546Z,4.63
2019-05-01T16:27:18.892Z,4.63
2019-05-01T16:29:46.563Z,3.57
2019-05-01T16:32:13.985Z,4.70
2019-05-01T16:34:41.254Z,4.07
2019-05-01T16:37:08.863Z,5.37
2019-05-01T16:39:55.762Z,4.40
2019-05-01T16:42:30.326Z,3.50
2019-05-01T16:44:58.258Z,4.50
2019-05-01T16:47:25.816Z,4.03
2019-05-01T16:49:53.155Z,3.67
2019-05-01T16:52:24.417Z,3.80
2019-05-01T16:54:58.991Z,3.63
2019-05-01T16:57:21.079Z,3.30
2019-05-01T16:59:48.632Z,4.07
2019-05-01T17:02:38.404Z,4.20
2019-05-01T17:05:23.950Z,4.73
2019-05-01T17:08:08.461Z,4.90
2019-05-01T17:10:37.619Z,4.60
2019-05-01T17:13:06.284Z,4.17
2019-05-01T17:15:37.131Z,5.27
2019-05-01T17:18:04.856Z,4.97
2019-05-01T17:20:32.192Z,5.77
2019-05-01T17:22:59.539Z,5.47
2019-05-01T17:25:29.448Z,4.90
2019-05-01T17:27:56.711Z,5.93
2019-05-01T17:30:39.793Z,5.07
2019-05-01T17:33:07.094Z,4.57
2019-05-01T17:35:36.935Z,4.77
2019-05-01T17:38:04.349Z,5.33
2019-05-01T17:40:31.911Z,5.37
2019-05-01T17:42:59.285Z,3.97
2019-05-01T17:45:29.833Z,4.30
2019-05-01T17:47:57.938Z,4.70
2019-05-01T17:50:24.912Z,5.70
2019-05-01T17:52:52.699Z,4.50
2019-05-01T17:55:20.057Z,4.20
2019-05-01T17:57:47.321Z,4.70
2019-05-01T18:01:05.882Z,4.17
2019-05-01T18:03:47.263Z,4.40
2019-05-01T18:06:17.288Z,5.83
2019-05-01T18:08:45.071Z,4.77
2019-05-01T18:11:14.125Z,4.60
2019-05-01T18:13:41.359Z,5.03
2019-05-01T18:16:08.703Z,5.70
2019-05-01T18:18:36.403Z,6.10
2019-05-01T18:21:03.627Z,4.93
2019-05-01T18:23:49.468Z,5.23
2019-05-01T18:26:27.405Z,6.53
2019-05-01T18:29:05.747Z,4.23
2019-05-01T18:31:33.135Z,3.90
2019-05-01T18:34:02.603Z,4.73
2019-05-01T18:36:35.408Z,5.60
2019-05-01T18:39:16.831Z,4.80
2019-05-01T18:41:48.384Z,5.83
2019-05-01T18:44:15.699Z,6.23
2019-05-01T18:46:43.420Z,7.87
2019-05-01T18:49:10.648Z,6.90
2019-05-01T18:51:57.769Z,5.80
2019-05-01T18:54:25.213Z,5.90
2019-05-01T18:57:12.106Z,5.87
2019-05-01T18:59:52.271Z,6.60
2019-05-01T19:05:18.002Z,5.93
2019-05-01T19:10:32.313Z,5.80
2019-05-01T19:12:59.671Z,6.67
2019-05-01T19:15:46.401Z,6.17
2019-05-01T19:18:33.123Z,6.50
2019-05-01T19:21:00.556Z,7.10
2019-05-01T19:23:29.880Z,6.53
2019-05-01T19:26:03.631Z,6.40
2019-05-01T19:28:28.023Z,6.70
2019-05-01T19:30:56.748Z,6.50
2019-05-01T19:33:24.293Z,7.20
2019-05-01T19:35:51.510Z,8.40
2019-05-01T19:38:35.022Z,7.20
2019-05-01T19:41:03.521Z,7.23
2019-05-01T19:43:31.076Z,7.73
2019-05-01T19:45:58.242Z,7.00
2019-05-01T19:48:25.452Z,8.13
2019-05-01T19:50:52.724Z,6.47
2019-05-01T19:53:20.398Z,7.00
2019-05-01T19:55:47.761Z,6.90
2019-05-01T19:58:15.437Z,7.83
2019-05-01T20:01:04.621Z,7.07
2019-05-01T20:03:36.313Z,7.13
2019-05-01T20:06:05.490Z,7.60
2019-05-01T20:08:29.881Z,8.97
2019-05-01T20:10:57.334Z,8.80
2019-05-01T20:13:24.482Z,9.13
2019-05-01T20:15:51.543Z,9.20
2019-05-01T20:18:19.267Z,9.87
2019-05-01T20:20:46.611Z,10.50
2019-05-01T20:23:13.997Z,11.10
2019-05-01T20:25:41.240Z,11.10
2019-05-01T20:28:08.490Z,11.63
2019-05-01T20:30:35.912Z,11.30
2019-05-01T20:33:22.580Z,11.17
2019-05-01T20:35:50.262Z,10.63
2019-05-01T20:38:17.467Z,11.50
2019-05-01T20:40:44.412Z,12.00
2019-05-01T20:43:11.930Z,10.83
2019-05-01T20:45:39.040Z,11.60
2019-05-01T20:48:06.336Z,12.30
2019-05-01T20:50:33.742Z,13.47
2019-05-01T20:53:01.411Z,13.17
2019-05-01T20:55:28.805Z,12.90
2019-05-01T20:58:15.574Z,13.57
2019-05-01T21:00:43.205Z,13.50
2019-05-01T21:03:30.761Z,13.83
2019-05-01T21:06:07.964Z,13.10
2019-05-01T21:08:59.372Z,12.60
2019-05-01T21:11:33.427Z,13.03
2019-05-01T21:14:15.973Z,13.87
2019-05-01T21:16:32.939Z,14.60
2019-05-01T21:19:19.012Z,13.97
2019-05-01T21:21:46.360Z,13.53
2019-05-01T21:24:17.887Z,14.83
2019-05-01T21:26:45.100Z,14.23
2019-05-01T21:29:14.051Z,16.90
2019-05-01T21:31:41.566Z,15.10
2019-05-01T21:34:08.608Z,18.67
2019-05-01T21:36:35.528Z,15.37
2019-05-01T21:39:04.178Z,17.37
2019-05-01T21:41:32.889Z,16.70
2019-05-01T21:44:00.053Z,18.30
2019-05-01T21:46:27.350Z,16.87
2019-05-01T21:48:54.266Z,16.60
2019-05-01T21:51:22.718Z,16.50
2019-05-01T21:53:50.299Z,17.87
2019-05-01T21:56:17.310Z,16.33
2019-05-01T21:58:45.256Z,16.37
2019-05-01T22:01:12.888Z,17.43
2019-05-01T22:03:39.892Z,16.70
2019-05-01T22:06:11.264Z,18.60
2019-05-01T22:08:39.063Z,16.90
2019-05-01T22:11:06.067Z,17.13
2019-05-01T22:13:33.408Z,16.47
2019-05-01T22:16:24.057Z,18.97
2019-05-01T22:19:14.837Z,16.30
2019-05-01T22:22:07.295Z,17.27
2019-05-01T22:24:52.375Z,16.67
2019-05-01T22:27:23.324Z,20.10
2019-05-01T22:29:59.588Z,19.43
2019-05-01T22:32:34.186Z,20.30
2019-05-01T22:35:25.907Z,18.67
2019-05-01T22:37:55.228Z,18.47
2019-05-01T22:40:32.068Z,18.80
2019-05-01T22:42:59.230Z,21.40
2019-05-01T22:45:26.723Z,18.67
2019-05-01T22:47:53.750Z,19.77
2019-05-01T22:50:21.401Z,21.80
2019-05-01T22:52:48.652Z,22.03
2019-05-01T22:55:15.547Z,23.33
2019-05-01T22:57:42.756Z,22.47
2019-05-01T23:00:20.333Z,22.87
2019-05-01T23:03:09.264Z,24.30
2019-05-01T23:05:36.515Z,25.47
2019-05-01T23:08:03.546Z,23.93
2019-05-01T23:10:31.387Z,23.97
2019-05-01T23:12:58.261Z,24.30
2019-05-01T23:15:44.979Z,25.07
2019-05-01T23:18:31.949Z,23.77
2019-05-01T23:20:59.194Z,23.50
2019-05-01T23:23:26.111Z,23.47
2019-05-01T23:25:53.704Z,22.43
2019-05-01T23:28:20.744Z,24.80
2019-05-01T23:30:48.262Z,24.43
2019-05-01T23:33:15.165Z,22.87
2019-05-01T23:35:42.232Z,22.90
2019-05-01T23:38:09.391Z,22.77
2019-05-01T23:40:36.482Z,22.37
2019-05-01T23:43:04.055Z,23.90
2019-05-01T23:45:31.045Z,25.20
2019-05-01T23:47:57.935Z,25.47
2019-05-01T23:50:25.317Z,25.07
2019-05-01T23:52:52.266Z,25.33
2019-05-01T23:55:19.626Z,23.13
2019-05-01T23:57:46.753Z,22.70
